Time;durP1;ratioP1;P1;durP2;ratioP2;P2;SDS_P1;SDS_P2;PMS_P1;PMS_P2;Temp;Humidity;BMP_temperature;BMP_pressure;BME280_temperature;BME280_humidity;BME280_pressure;Samples;Min_cycle;Max_cycle;Signal;HPM_P1;HPM_P2
2023/01/12 00:02:18;;;;;;;2.45;1.15;;;;;;;8.37;100.00;100823.31;4985569;28;20487;-71
2023/01/12 00:04:44;;;;;;;4.03;1.10;;;;;;;8.41;100.00;100822.22;4985269;28;20038;-71
2023/01/12 00:07:12;;;;;;;3.47;1.00;;;;;;;8.42;100.00;100821.28;4987002;28;20050;-71
2023/01/12 00:09:37;;;;;;;3.22;1.25;;;;;;;8.44;100.00;100818.56;4992914;28;20038;-71
2023/01/12 00:12:05;;;;;;;7.80;2.92;;;;;;;8.40;100.00;100820.50;4987142;28;20050;-71
2023/01/12 00:14:35;;;;;;;6.57;1.52;;;;;;;8.47;100.00;100819.22;4971177;28;20093;-71
2023/01/12 00:17:01;;;;;;;7.95;1.67;;;;;;;8.53;100.00;100818.91;4983039;28;20547;-71
2023/01/12 00:19:27;;;;;;;8.52;1.67;;;;;;;8.51;100.00;100812.78;4982626;28;20125;-72
2023/01/12 00:24:24;;;;;;;4.40;2.05;;;;;;;8.63;100.00;100821.03;4984654;28;20037;-71
2023/01/12 00:26:50;;;;;;;7.93;1.67;;;;;;;8.61;100.00;100805.16;4987703;28;20138;-71
2023/01/12 00:29:16;;;;;;;10.38;2.38;;;;;;;8.59;100.00;100824.81;4985540;28;20907;-71
2023/01/12 00:31:42;;;;;;;10.48;2.70;;;;;;;8.61;100.00;100810.50;4973294;28;20041;-72
2023/01/12 00:34:08;;;;;;;8.15;2.85;;;;;;;8.57;100.00;100816.91;4988823;28;20111;-71
2023/01/12 00:36:33;;;;;;;12.73;3.50;;;;;;;8.69;100.00;100820.72;4991415;28;20038;-72
2023/01/12 00:38:59;;;;;;;6.15;2.85;;;;;;;8.77;100.00;100818.47;4984992;28;20037;-72
2023/01/12 00:46:53;;;;;;;22.55;5.85;;;;;;;8.83;100.00;100796.84;4984879;28;20627;-72
2023/01/12 00:49:18;;;;;;;21.13;3.83;;;;;;;8.75;100.00;100799.94;4983417;28;20042;-72
2023/01/12 00:51:44;;;;;;;11.63;3.55;;;;;;;8.82;100.00;100800.44;4971477;28;20145;-72
2023/01/12 00:54:10;;;;;;;9.63;3.63;;;;;;;8.72;100.00;100792.13;4996362;28;20034;-72
2023/01/12 00:56:36;;;;;;;12.07;3.83;;;;;;;8.71;100.00;100789.56;4986906;28;20035;-72
2023/01/12 00:59:03;;;;;;;28.92;5.43;;;;;;;8.79;100.00;100790.84;4990507;28;20084;-71
2023/01/12 01:01:28;;;;;;;22.20;5.68;;;;;;;8.73;100.00;100782.34;4974143;28;20537;-72
2023/01/12 01:03:54;;;;;;;14.65;4.47;;;;;;;8.78;100.00;100788.25;4989412;28;20034;-71
2023/01/12 01:06:20;;;;;;;22.67;6.80;;;;;;;8.74;100.00;100789.41;4991211;28;20046;-71
2023/01/12 01:08:46;;;;;;;22.17;4.97;;;;;;;8.71;100.00;100786.91;4971294;28;20038;-72
2023/01/12 01:11:13;;;;;;;22.70;5.25;;;;;;;8.67;100.00;100774.72;4989091;28;20834;-72
2023/01/12 01:13:40;;;;;;;15.85;5.18;;;;;;;8.70;100.00;100772.75;4985227;28;20042;-72
2023/01/12 01:16:07;;;;;;;22.42;6.60;;;;;;;8.69;100.00;100776.38;4972274;28;20046;-73
2023/01/12 01:18:33;;;;;;;21.10;5.88;;;;;;;8.64;100.00;100777.56;4985473;28;20085;-72
2023/01/12 01:20:59;;;;;;;18.40;6.13;;;;;;;8.78;100.00;100769.66;4984026;28;20219;-72
2023/01/12 01:23:25;;;;;;;19.55;5.07;;;;;;;8.71;100.00;100773.63;4990057;28;20052;-72
2023/01/12 01:25:51;;;;;;;22.42;5.72;;;;;;;8.75;100.00;100761.88;4992020;28;20038;-72
2023/01/12 01:28:17;;;;;;;16.20;5.40;;;;;;;8.57;100.00;100764.59;4988873;28;20503;-72
2023/01/12 01:30:43;;;;;;;21.13;5.53;;;;;;;8.66;100.00;100751.75;4990108;28;20034;-72
2023/01/12 01:33:09;;;;;;;16.50;5.47;;;;;;;8.64;100.00;100745.69;4982510;28;20034;-72
2023/01/12 01:35:35;;;;;;;19.33;5.13;;;;;;;8.61;100.00;100749.34;4986709;28;20547;-72
2023/01/12 01:38:02;;;;;;;13.50;3.95;;;;;;;8.58;100.00;100730.91;4983059;28;20789;-71
2023/01/12 01:40:27;;;;;;;16.00;5.35;;;;;;;8.65;100.00;100736.75;4967376;28;20169;-72
2023/01/12 01:42:53;;;;;;;25.83;6.25;;;;;;;8.73;100.00;100724.72;4982989;28;20464;-72
2023/01/12 01:45:18;;;;;;;16.48;4.53;;;;;;;8.71;100.00;100725.75;4984362;28;20513;-72
2023/01/12 01:47:49;;;;;;;27.42;5.93;;;;;;;8.78;100.00;100741.25;4989772;28;20462;-71
2023/01/12 01:50:27;;;;;;;28.35;4.45;;;;;;;8.77;100.00;100738.69;4968197;28;20042;-72
2023/01/12 01:53:02;;;;;;;15.73;4.45;;;;;;;8.72;100.00;100723.00;4983427;28;20038;-72
2023/01/12 01:55:37;;;;;;;18.38;3.75;;;;;;;8.68;100.00;100723.28;4965649;28;20081;-72
2023/01/12 01:58:14;;;;;;;17.38;4.57;;;;;;;8.67;100.00;100713.59;4972384;28;20044;-70
2023/01/12 02:00:42;;;;;;;24.08;5.28;;;;;;;8.64;100.00;100714.63;4994951;28;20132;-71
2023/01/12 02:03:08;;;;;;;23.98;4.90;;;;;;;8.61;100.00;100711.28;4988484;28;20054;-71
2023/01/12 02:05:36;;;;;;;13.10;4.18;;;;;;;8.66;100.00;100711.88;4988813;28;20053;-71
2023/01/12 02:08:22;;;;;;;22.38;4.65;;;;;;;8.69;100.00;100704.59;4985749;28;20038;-71
2023/01/12 02:10:49;;;;;;;15.85;3.45;;;;;;;8.69;100.00;100707.25;4969034;28;20899;-71
2023/01/12 02:16:19;;;;;;;16.77;3.88;;;;;;;8.64;100.00;100703.16;4965043;28;20172;-70
2023/01/12 02:19:29;;;;;;;19.52;4.05;;;;;;;8.67;100.00;100698.50;4965454;28;20047;-72
2023/01/12 02:22:36;;;;;;;18.42;3.70;;;;;;;8.69;100.00;100706.41;4963814;28;20042;-70
2023/01/12 02:25:33;;;;;;;17.60;3.97;;;;;;;8.64;100.00;100703.16;4946619;28;20054;-71
2023/01/12 02:28:17;;;;;;;25.35;4.47;;;;;;;8.73;100.00;100697.28;4965451;28;20125;-71
2023/01/12 02:31:17;;;;;;;18.75;5.43;;;;;;;8.75;100.00;100690.09;4973148;28;20058;-70
2023/01/12 02:33:51;;;;;;;9.15;3.05;;;;;;;8.89;100.00;100691.94;4972377;28;20108;-71
2023/01/12 02:36:32;;;;;;;12.73;3.22;;;;;;;8.71;100.00;100692.06;4980537;28;20119;-70
2023/01/12 02:39:06;;;;;;;13.55;3.50;;;;;;;8.68;100.00;100683.41;4969627;28;20089;-73
2023/01/12 02:44:54;;;;;;;14.73;2.88;;;;;;;8.74;100.00;100678.59;4967038;28;20450;-70
2023/01/12 02:47:46;;;;;;;14.15;3.83;;;;;;;8.85;100.00;100677.13;4967775;28;20065;-70
2023/01/12 02:50:22;;;;;;;11.20;2.67;;;;;;;8.77;100.00;100670.44;4976992;28;20497;-70
2023/01/12 02:52:55;;;;;;;12.45;3.00;;;;;;;8.77;100.00;100662.44;4974225;28;20124;-71
2023/01/12 02:55:22;;;;;;;19.30;3.25;;;;;;;8.80;100.00;100661.44;4966823;28;20038;-70
2023/01/12 02:57:48;;;;;;;19.75;3.80;;;;;;;8.75;100.00;100643.09;4963236;28;20050;-71
2023/01/12 03:00:17;;;;;;;17.60;3.55;;;;;;;8.85;100.00;100634.56;4967375;28;20043;-71
2023/01/12 03:02:42;;;;;;;16.38;3.78;;;;;;;8.72;100.00;100639.75;4965443;28;20034;-70
2023/01/12 03:05:08;;;;;;;17.08;4.35;;;;;;;8.79;100.00;100623.34;4972025;28;20047;-70
2023/01/12 03:07:54;;;;;;;23.50;4.75;;;;;;;8.67;100.00;100628.53;4971716;28;20038;-71
2023/01/12 03:10:19;;;;;;;16.50;5.40;;;;;;;8.69;100.00;100621.34;4981244;28;20049;-70
2023/01/12 03:12:50;;;;;;;12.73;3.22;;;;;;;8.70;100.00;100610.59;4970313;28;20062;-70
2023/01/12 03:15:17;;;;;;;25.52;4.30;;;;;;;8.68;100.00;100615.13;4965992;28;20055;-70
2023/01/12 03:18:08;;;;;;;25.83;4.55;;;;;;;8.77;100.00;100621.72;4981531;28;20062;-70
2023/01/12 03:20:38;;;;;;;10.13;3.92;;;;;;;8.80;100.00;100617.09;4970695;28;20563;-72
2023/01/12 03:23:37;;;;;;;14.23;3.67;;;;;;;8.78;100.00;100604.81;4975152;28;20768;-71
2023/01/12 03:26:06;;;;;;;18.42;4.47;;;;;;;8.84;100.00;100593.84;4960056;28;20046;-72
2023/01/12 03:28:35;;;;;;;15.57;3.70;;;;;;;8.80;100.00;100592.31;4982684;28;20112;-70
2023/01/12 03:31:09;;;;;;;28.27;4.22;;;;;;;8.80;100.00;100581.69;4972816;28;20045;-70
2023/01/12 03:33:37;;;;;;;19.27;3.50;;;;;;;8.73;100.00;100593.59;4971660;28;20121;-72
2023/01/12 03:36:15;;;;;;;19.70;3.90;;;;;;;8.69;100.00;100592.94;4964053;28;20042;-71
2023/01/12 03:38:59;;;;;;;16.45;3.63;;;;;;;8.80;100.00;100593.16;4965651;28;20035;-71
2023/01/12 03:41:44;;;;;;;30.80;4.72;;;;;;;8.75;100.00;100586.41;4968399;28;20061;-71
2023/01/12 03:44:37;;;;;;;24.95;5.20;;;;;;;8.73;100.00;100580.31;4969502;28;20038;-71
2023/01/12 03:47:10;;;;;;;26.48;4.68;;;;;;;8.72;100.00;100573.28;4958081;28;20034;-71
2023/01/12 03:49:55;;;;;;;13.45;3.03;;;;;;;8.64;100.00;100573.78;4973150;28;20046;-71
2023/01/12 03:52:23;;;;;;;20.15;4.35;;;;;;;8.68;100.00;100561.13;4967093;28;20125;-71
2023/01/12 03:54:51;;;;;;;27.20;4.35;;;;;;;8.74;100.00;100555.47;4968093;28;20049;-71
2023/01/12 03:57:16;;;;;;;27.17;4.88;;;;;;;8.80;100.00;100545.31;4968995;28;20034;-71
2023/01/12 03:59:42;;;;;;;22.58;4.05;;;;;;;8.70;100.00;100537.97;4965542;28;20030;-71
2023/01/12 04:02:08;;;;;;;20.70;5.18;;;;;;;8.57;100.00;100543.16;4972206;28;20488;-71
2023/01/12 04:04:34;;;;;;;19.10;3.95;;;;;;;8.63;100.00;100526.84;4969329;28;20038;-71
2023/01/12 04:07:00;;;;;;;18.13;3.88;;;;;;;8.65;100.00;100526.78;4964059;28;20369;-71
2023/01/12 04:09:25;;;;;;;14.30;5.47;;;;;;;8.68;100.00;100518.59;4966445;28;20046;-72
2023/01/12 04:12:09;;;;;;;24.30;7.25;;;;;;;8.69;100.00;100517.69;4978232;28;20053;-71
2023/01/12 04:14:39;;;;;;;19.73;5.05;;;;;;;8.57;100.00;100520.09;4984807;28;20188;-71
2023/01/12 04:17:05;;;;;;;23.13;5.55;;;;;;;8.65;100.00;100513.50;4977860;28;20045;-71
2023/01/12 04:19:31;;;;;;;19.42;4.50;;;;;;;8.64;100.00;100504.66;4989338;28;20042;-72
2023/01/12 04:24:40;;;;;;;16.02;3.50;;;;;;;8.62;100.00;100492.41;4985822;28;20077;-71
2023/01/12 04:27:06;;;;;;;19.83;3.58;;;;;;;8.66;100.00;100488.59;4984527;28;20042;-72
2023/01/12 04:29:31;;;;;;;19.15;5.72;;;;;;;8.61;100.00;100488.88;4984075;28;20064;-71
2023/01/12 04:31:57;;;;;;;16.02;4.43;;;;;;;8.60;100.00;100481.88;4989673;28;20045;-72
2023/01/12 04:34:22;;;;;;;22.02;3.40;;;;;;;8.50;100.00;100476.25;4989125;28;20038;-71
2023/01/12 04:36:48;;;;;;;7.05;2.67;;;;;;;8.52;100.00;100457.56;4985901;28;20042;-71
2023/01/12 04:39:13;;;;;;;11.43;3.70;;;;;;;8.62;100.00;100456.03;4987088;28;20069;-71
2023/01/12 04:41:39;;;;;;;9.68;3.53;;;;;;;8.56;100.00;100440.47;4983354;28;20053;-72
2023/01/12 04:44:04;;;;;;;20.40;4.55;;;;;;;8.53;100.00;100416.75;4981752;28;20099;-72
2023/01/12 04:46:30;;;;;;;16.38;3.33;;;;;;;8.66;100.00;100406.22;4994889;28;21966;-73
2023/01/12 04:48:55;;;;;;;11.68;3.42;;;;;;;8.50;100.00;100387.72;4981681;28;20035;-71
2023/01/12 04:51:21;;;;;;;14.23;3.35;;;;;;;8.57;100.00;100373.09;4995621;28;20042;-72
2023/01/12 04:53:50;;;;;;;9.45;3.15;;;;;;;8.46;100.00;100368.44;4990572;28;20038;-72
2023/01/12 04:56:16;;;;;;;14.95;2.90;;;;;;;8.53;100.00;100360.94;4989839;28;20116;-71
2023/01/12 04:58:42;;;;;;;13.52;3.00;;;;;;;8.49;100.00;100348.81;4987381;28;20041;-71
2023/01/12 05:01:08;;;;;;;9.18;2.40;;;;;;;8.61;100.00;100341.88;4986287;28;20046;-71
2023/01/12 05:03:34;;;;;;;11.55;2.55;;;;;;;8.51;100.00;100333.63;4984092;28;20042;-72
2023/01/12 05:06:01;;;;;;;11.55;2.60;;;;;;;8.62;100.00;100333.78;4985635;28;20045;-71
2023/01/12 05:11:10;;;;;;;12.80;2.90;;;;;;;8.47;100.00;100332.09;4991509;28;20051;-71
2023/01/12 05:13:35;;;;;;;11.18;3.17;;;;;;;8.50;100.00;100315.97;4971020;28;20497;-72
2023/01/12 05:16:14;;;;;;;5.50;2.20;;;;;;;8.62;100.00;100320.50;4985069;28;20048;-71
2023/01/12 05:18:40;;;;;;;11.18;2.22;;;;;;;8.57;100.00;100312.81;4984196;28;20038;-72
2023/01/12 05:21:05;;;;;;;9.32;2.10;;;;;;;8.62;100.00;100301.91;4971355;28;20475;-71
2023/01/12 05:23:31;;;;;;;8.82;2.33;;;;;;;8.54;100.00;100299.75;4987132;28;20042;-71
2023/01/12 05:26:01;;;;;;;10.32;2.00;;;;;;;8.56;100.00;100299.63;4984719;28;20034;-71
2023/01/12 05:28:28;;;;;;;8.57;1.58;;;;;;;8.64;100.00;100288.53;4973710;28;20058;-71
2023/01/12 05:30:54;;;;;;;10.68;2.15;;;;;;;8.63;100.00;100269.03;4974230;28;20037;-71
2023/01/12 05:33:19;;;;;;;7.15;2.38;;;;;;;8.69;100.00;100278.44;4988993;28;20055;-71
2023/01/12 05:35:45;;;;;;;10.88;3.65;;;;;;;8.70;100.00;100267.72;4967691;28;20043;-72
2023/01/12 05:38:11;;;;;;;9.70;1.80;;;;;;;8.72;100.00;100270.25;4986160;28;20078;-71
2023/01/12 05:40:36;;;;;;;6.55;1.73;;;;;;;8.80;100.00;100273.28;4994140;28;20046;-71
2023/01/12 05:45:46;;;;;;;10.02;2.45;;;;;;;8.79;100.00;100263.63;4997223;28;20037;-71
2023/01/12 05:48:11;;;;;;;14.35;3.40;;;;;;;8.70;100.00;100250.91;4998442;28;20478;-71
2023/01/12 05:50:37;;;;;;;4.60;1.67;;;;;;;8.73;100.00;100248.88;4997805;28;20072;-70
2023/01/12 05:53:09;;;;;;;5.78;1.77;;;;;;;8.73;100.00;100243.56;4995620;28;20049;-71
2023/01/12 05:55:36;;;;;;;14.27;2.72;;;;;;;8.82;100.00;100248.28;4996463;28;20058;-71
2023/01/12 05:58:02;;;;;;;12.90;2.67;;;;;;;8.87;100.00;100233.84;4996856;28;20689;-73
2023/01/12 06:00:27;;;;;;;9.55;2.28;;;;;;;8.80;100.00;100244.03;4988306;28;20045;-71
2023/01/12 06:02:53;;;;;;;20.35;3.33;;;;;;;8.79;100.00;100234.38;4978860;28;20068;-71
2023/01/12 06:05:18;;;;;;;14.90;2.67;;;;;;;8.86;100.00;100243.63;4991197;28;20097;-71
2023/01/12 06:07:44;;;;;;;10.27;1.92;;;;;;;8.86;100.00;100240.13;4990074;28;20041;-71
2023/01/12 06:10:10;;;;;;;8.93;1.70;;;;;;;8.94;100.00;100227.19;4998157;28;20065;-71
2023/01/12 06:15:19;;;;;;;8.30;1.83;;;;;;;8.86;100.00;100245.44;5002981;28;20069;-71
2023/01/12 06:17:45;;;;;;;9.07;1.83;;;;;;;8.82;100.00;100235.00;4991620;28;20350;-71
2023/01/12 06:20:15;;;;;;;13.60;2.13;;;;;;;8.81;100.00;100229.78;4988864;28;20045;-71
2023/01/12 06:22:44;;;;;;;10.40;2.00;;;;;;;8.89;100.00;100224.84;4992748;28;20856;-71
2023/01/12 06:25:10;;;;;;;12.13;1.83;;;;;;;9.00;100.00;100224.13;4986266;28;20049;-71
2023/01/12 06:27:37;;;;;;;8.68;1.75;;;;;;;8.91;100.00;100241.53;4970750;28;20057;-71
2023/01/12 06:30:07;;;;;;;5.28;1.80;;;;;;;9.04;100.00;100265.50;4993191;28;20729;-71
2023/01/12 06:32:33;;;;;;;7.20;2.55;;;;;;;9.05;100.00;100217.53;4986868;28;20040;-72
2023/01/12 06:34:58;;;;;;;9.70;1.95;;;;;;;9.03;100.00;100216.75;4993200;28;20129;-71
2023/01/12 06:37:24;;;;;;;9.48;2.50;;;;;;;8.94;100.00;100217.41;4974346;28;20037;-71
2023/01/12 06:39:50;;;;;;;12.02;2.90;;;;;;;8.97;100.00;100203.88;4993464;28;20125;-71
2023/01/12 06:42:27;;;;;;;5.38;1.67;;;;;;;8.90;100.00;100193.78;4995574;28;20060;-71
2023/01/12 06:44:57;;;;;;;15.02;3.50;;;;;;;8.96;100.00;100218.13;4994506;28;20073;-71
2023/01/12 06:47:24;;;;;;;6.13;1.65;;;;;;;8.97;100.00;100232.28;4999857;28;20148;-71
2023/01/12 06:49:52;;;;;;;9.43;3.15;;;;;;;8.96;100.00;100228.78;4981917;28;20049;-71
2023/01/12 06:52:23;;;;;;;9.75;1.95;;;;;;;8.99;100.00;100220.59;4988302;28;20044;-71
2023/01/12 06:54:49;;;;;;;7.93;1.67;;;;;;;9.02;100.00;100231.03;4975911;28;20088;-71
2023/01/12 06:57:15;;;;;;;10.25;1.50;;;;;;;9.00;100.00;100240.06;4956952;28;20046;-71
2023/01/12 06:59:43;;;;;;;7.18;1.30;;;;;;;8.99;100.00;100233.06;4976767;28;20042;-72
2023/01/12 07:02:14;;;;;;;2.85;1.25;;;;;;;9.01;100.00;100231.97;4991727;28;20043;-71
2023/01/12 07:04:40;;;;;;;7.22;1.73;;;;;;;9.08;100.00;100225.28;4990196;28;20118;-71
2023/01/12 07:07:07;;;;;;;10.35;2.47;;;;;;;9.11;100.00;100244.66;4973381;28;20087;-71
2023/01/12 07:09:33;;;;;;;6.18;1.73;;;;;;;9.12;100.00;100247.22;4979290;28;20029;-71
2023/01/12 07:11:58;;;;;;;2.88;1.42;;;;;;;9.14;100.00;100237.34;4990315;28;20065;-71
2023/01/12 07:14:24;;;;;;;7.35;1.63;;;;;;;9.17;100.00;100249.56;4966958;28;20553;-71
2023/01/12 07:16:49;;;;;;;4.20;2.40;;;;;;;9.20;100.00;100246.72;4980554;28;20545;-71
2023/01/12 07:19:15;;;;;;;8.25;1.65;;;;;;;9.13;100.00;100243.59;4990631;28;20042;-71
2023/01/12 07:21:40;;;;;;;5.28;1.15;;;;;;;9.27;100.00;100240.00;4987992;28;20045;-72
2023/01/12 07:24:06;;;;;;;7.18;1.00;;;;;;;9.22;100.00;100250.13;4980452;28;20053;-71
2023/01/12 07:26:31;;;;;;;6.75;1.35;;;;;;;9.17;100.00;100246.91;4993248;28;20046;-71
2023/01/12 07:28:57;;;;;;;6.72;1.73;;;;;;;9.18;100.00;100252.13;4994877;28;20091;-71
2023/01/12 07:31:22;;;;;;;7.50;1.40;;;;;;;9.24;100.00;100249.06;4986376;28;20153;-71
2023/01/12 07:33:52;;;;;;;5.20;1.40;;;;;;;9.30;100.00;100255.78;4984992;28;20490;-72
2023/01/12 07:36:18;;;;;;;5.53;1.50;;;;;;;9.28;100.00;100249.69;4992103;28;20072;-71
2023/01/12 07:38:43;;;;;;;5.50;2.17;;;;;;;9.29;100.00;100254.09;4978873;28;20034;-71
2023/01/12 07:42:22;;;;;;;2.38;1.20;;;;;;;9.33;100.00;100282.16;4990011;28;20770;-71
2023/01/12 07:44:06;;;;;;;1.77;1.05;;;;;;;9.29;100.00;100270.03;4988910;28;20038;-71
2023/01/12 07:46:31;;;;;;;4.97;1.10;;;;;;;9.40;100.00;100283.47;4986203;28;20164;-71
2023/01/12 07:48:57;;;;;;;4.63;1.10;;;;;;;9.31;100.00;100270.78;4977828;28;20462;-71
2023/01/12 07:51:22;;;;;;;2.88;1.02;;;;;;;9.37;100.00;100277.50;4951871;28;20772;-71
2023/01/12 07:53:48;;;;;;;6.43;1.27;;;;;;;9.38;100.00;100282.69;4992853;28;20037;-71
2023/01/12 07:56:15;;;;;;;5.95;1.25;;;;;;;9.48;100.00;100290.91;4976148;28;20038;-71
2023/01/12 07:58:47;;;;;;;2.40;1.23;;;;;;;9.43;100.00;100283.25;4967083;28;20039;-71
2023/01/12 08:01:12;;;;;;;2.45;1.23;;;;;;;9.44;100.00;100289.41;4987819;28;20037;-70
2023/01/12 08:03:38;;;;;;;1.90;1.25;;;;;;;9.43;100.00;100298.38;4988017;28;20038;-70
2023/01/12 08:06:04;;;;;;;4.25;1.33;;;;;;;9.47;100.00;100292.72;4986637;28;20092;-70
2023/01/12 08:08:29;;;;;;;2.03;1.10;;;;;;;9.46;100.00;100290.19;4995136;28;20495;-71
2023/01/12 08:11:07;;;;;;;3.03;1.02;;;;;;;9.44;100.00;100300.94;4968819;28;20488;-72
2023/01/12 08:13:33;;;;;;;5.05;1.38;;;;;;;9.47;100.00;100297.22;4989898;28;20046;-71
2023/01/12 08:16:05;;;;;;;3.38;1.10;;;;;;;9.49;100.00;100304.16;4974699;28;20042;-71
2023/01/12 08:18:47;;;;;;;3.35;1.77;;;;;;;9.53;100.00;100310.09;4997113;28;20053;-71
2023/01/12 08:21:18;;;;;;;2.88;1.30;;;;;;;9.50;100.00;100310.31;4976739;28;20038;-71
2023/01/12 08:23:51;;;;;;;3.67;1.20;;;;;;;9.44;100.00;100313.38;4984711;28;20104;-70
2023/01/12 08:26:22;;;;;;;1.92;1.27;;;;;;;9.49;100.00;100316.59;4990372;28;20061;-71
2023/01/12 08:28:58;;;;;;;11.18;1.73;;;;;;;9.54;100.00;100318.00;4994142;28;20137;-71
2023/01/12 08:31:25;;;;;;;2.88;1.70;;;;;;;9.64;100.00;100310.25;4985683;28;20108;-71
2023/01/12 08:33:53;;;;;;;2.92;1.23;;;;;;;9.62;100.00;100322.78;4985895;28;20365;-72
2023/01/12 08:36:20;;;;;;;3.72;1.25;;;;;;;9.62;100.00;100328.09;4963804;28;20034;-71
2023/01/12 08:38:46;;;;;;;4.78;1.00;;;;;;;9.62;100.00;100325.44;4979187;28;20056;-71
2023/01/12 08:44:01;;;;;;;3.67;2.35;;;;;;;9.64;100.00;100333.31;4983600;28;20881;-70
2023/01/12 08:46:27;;;;;;;3.42;1.55;;;;;;;9.71;100.00;100338.13;4987466;28;20050;-70
2023/01/12 08:48:53;;;;;;;5.65;1.40;;;;;;;9.69;100.00;100329.41;4972288;28;20038;-70
2023/01/12 08:51:19;;;;;;;2.65;1.60;;;;;;;9.76;100.00;100348.47;4985807;28;20042;-71
2023/01/12 08:53:45;;;;;;;1.35;1.00;;;;;;;9.75;100.00;100341.47;4964175;28;20100;-70
2023/01/12 08:56:10;;;;;;;4.28;1.70;;;;;;;9.76;100.00;100346.66;4987454;28;20049;-71
2023/01/12 08:58:36;;;;;;;3.15;1.58;;;;;;;9.84;100.00;100349.66;4987667;28;20034;-70
2023/01/12 09:01:09;;;;;;;1.42;1.15;;;;;;;9.83;100.00;100361.25;4986741;28;20034;-71
2023/01/12 09:03:36;;;;;;;2.88;1.50;;;;;;;9.94;100.00;100351.69;4976506;28;20056;-72
2023/01/12 09:06:14;;;;;;;4.53;1.52;;;;;;;9.94;100.00;100360.56;4955235;28;20065;-71
2023/01/12 09:08:41;;;;;;;2.33;1.45;;;;;;;9.91;100.00;100355.41;4985108;28;20627;-71
2023/01/12 09:11:08;;;;;;;3.25;1.50;;;;;;;9.85;100.00;100347.88;4988091;28;20057;-71
2023/01/12 09:13:34;;;;;;;3.97;1.55;;;;;;;9.92;100.00;100354.47;4986428;28;20081;-70
2023/01/12 09:16:12;;;;;;;4.13;2.10;;;;;;;9.92;100.00;100362.44;4986775;28;20121;-71
2023/01/12 09:18:38;;;;;;;2.28;1.67;;;;;;;9.97;100.00;100372.78;4991891;28;20030;-71
2023/01/12 09:21:09;;;;;;;3.40;2.47;;;;;;;9.93;100.00;100368.63;4985000;28;20653;-71
2023/01/12 09:23:35;;;;;;;3.58;1.52;;;;;;;9.91;100.00;100365.22;4987536;28;20037;-70
2023/01/12 09:26:05;;;;;;;3.67;1.27;;;;;;;9.94;100.00;100379.19;4982420;28;20074;-73
2023/01/12 09:28:32;;;;;;;2.63;1.40;;;;;;;9.95;100.00;100380.91;4970335;28;20500;-70
2023/01/12 09:31:09;;;;;;;4.05;2.03;;;;;;;9.97;100.00;100389.63;4988215;28;20454;-71
2023/01/12 09:33:37;;;;;;;1.80;1.17;;;;;;;9.94;100.00;100370.31;4981437;28;20154;-70
2023/01/12 09:36:09;;;;;;;1.63;1.00;;;;;;;9.94;100.00;100395.19;4976585;28;20042;-73
2023/01/12 09:38:37;;;;;;;2.53;1.60;;;;;;;9.84;100.00;100392.28;4978076;28;20046;-72
2023/01/12 09:41:10;;;;;;;2.13;1.60;;;;;;;9.94;100.00;100392.50;4978747;28;20041;-72
2023/01/12 09:49:30;;;;;;;1.80;1.40;;;;;;;9.95;100.00;100407.53;4931852;29;20055;-72
2023/01/12 09:52:01;;;;;;;4.43;1.77;;;;;;;10.00;100.00;100405.41;4909820;29;20249;-72
2023/01/12 09:54:27;;;;;;;1.90;1.40;;;;;;;10.00;100.00;100409.88;4931731;29;20596;-73
2023/01/12 09:57:03;;;;;;;2.58;1.77;;;;;;;10.08;100.00;100418.19;4920792;29;20066;-72
2023/01/12 09:59:52;;;;;;;2.70;1.67;;;;;;;10.07;100.00;100403.16;4935259;29;20074;-72
2023/01/12 10:02:17;;;;;;;10.27;3.83;;;;;;;10.10;100.00;100416.28;4937066;29;20051;-72
2023/01/12 10:04:44;;;;;;;1.33;1.20;;;;;;;10.13;100.00;100419.56;4931100;29;20424;-73
2023/01/12 10:07:15;;;;;;;2.50;1.60;;;;;;;10.20;100.00;100417.38;4937711;29;20058;-71
2023/01/12 10:09:41;;;;;;;2.65;1.30;;;;;;;10.19;100.00;100425.44;4931562;29;20052;-72
2023/01/12 10:12:42;;;;;;;2.65;1.48;;;;;;;10.15;100.00;100413.31;4936924;29;20472;-72
2023/01/12 10:15:39;;;;;;;5.75;1.70;;;;;;;10.26;100.00;100418.78;4937075;29;20046;-72
2023/01/12 10:18:26;;;;;;;2.38;1.55;;;;;;;10.28;100.00;100422.19;4919696;29;20125;-73
2023/01/12 10:20:52;;;;;;;3.85;1.40;;;;;;;10.35;100.00;100428.81;4934899;29;20111;-72
2023/01/12 10:23:23;;;;;;;4.18;1.70;;;;;;;10.52;100.00;100419.63;4985209;28;20389;-71
2023/01/12 10:25:55;;;;;;;4.82;1.58;;;;;;;10.36;100.00;100426.03;4991230;28;20056;-72
2023/01/12 10:28:29;;;;;;;;;;;;;;;10.30;100.00;100421.13;4971236;28;20062;-70
2023/01/12 10:30:55;;;;;;;1.20;1.10;;;;;;;10.35;100.00;100424.34;4989697;28;19925;-73
2023/01/12 10:33:24;;;;;;;1.30;1.10;;;;;;;10.42;100.00;100426.56;4986421;28;20050;-73
2023/01/12 10:36:01;;;;;;;1.05;1.05;;;;;;;10.42;100.00;100435.41;4984674;28;20038;-73
2023/01/12 10:38:38;;;;;;;2.05;1.13;;;;;;;10.48;100.00;100410.13;4992704;28;20046;-72
2023/01/12 10:41:09;;;;;;;5.70;2.97;;;;;;;10.46;100.00;100425.41;4988807;28;20479;-71
2023/01/12 10:43:39;;;;;;;0.80;0.80;;;;;;;10.54;100.00;100431.03;4991585;28;20145;-73
2023/01/12 10:46:14;;;;;;;2.60;0.90;;;;;;;10.55;100.00;100427.44;4988138;28;20037;-72
2023/01/12 10:48:42;;;;;;;1.25;0.88;;;;;;;10.50;100.00;100430.41;4993545;28;20046;-72
2023/01/12 10:51:29;;;;;;;1.90;1.08;;;;;;;10.58;100.00;100432.53;4982334;28;20141;-72
2023/01/12 10:53:57;;;;;;;1.25;0.93;;;;;;;10.54;100.00;100431.91;4990652;28;20102;-72
2023/01/12 10:56:42;;;;;;;0.95;0.60;;;;;;;10.54;100.00;100439.03;4988094;28;20041;-72
2023/01/12 10:59:11;;;;;;;1.77;0.60;;;;;;;10.63;100.00;100423.25;4976171;28;20042;-74
2023/01/12 11:01:49;;;;;;;1.50;0.70;;;;;;;10.60;100.00;100434.16;4997822;28;20030;-72
2023/01/12 11:04:20;;;;;;;2.15;0.90;;;;;;;10.54;100.00;100433.69;4987794;28;20069;-72
2023/01/12 11:06:58;;;;;;;0.98;0.88;;;;;;;10.49;100.00;100439.38;4966579;28;20042;-73
2023/01/12 11:09:26;;;;;;;1.50;0.80;;;;;;;10.58;100.00;100427.19;4964028;28;20042;-72
2023/01/12 11:11:56;;;;;;;0.85;0.68;;;;;;;10.57;100.00;100429.00;4992334;28;20103;-70
2023/01/12 11:14:29;;;;;;;0.60;0.60;;;;;;;10.69;100.00;100431.78;4985689;28;20438;-70
2023/01/12 11:16:59;;;;;;;;;;;;;;;10.55;100.00;100416.78;4992467;28;20458;-70
2023/01/12 11:19:39;;;;;;;2.08;0.88;;;;;;;10.51;100.00;100431.25;4982821;28;19935;-70
2023/01/12 11:22:11;;;;;;;0.80;0.80;;;;;;;10.68;100.00;100433.59;4981064;28;20044;-70
2023/01/12 11:24:48;;;;;;;0.88;0.82;;;;;;;10.53;100.00;100429.34;4998156;28;20084;-71
2023/01/12 11:27:27;;;;;;;0.65;0.65;;;;;;;10.55;100.00;100428.28;4984591;28;20038;-72
2023/01/12 11:29:57;;;;;;;1.88;0.88;;;;;;;10.58;100.00;100422.72;4989355;28;20189;-70
2023/01/12 11:32:29;;;;;;;0.65;0.65;;;;;;;10.52;100.00;100424.97;4983973;28;20116;-70
2023/01/12 11:35:03;;;;;;;3.33;1.02;;;;;;;10.61;100.00;100424.31;4986206;28;20480;-70
2023/01/12 11:37:30;;;;;;;0.95;0.70;;;;;;;10.66;100.00;100418.69;4992308;28;20050;-70
2023/01/12 11:40:29;;;;;;;1.52;0.65;;;;;;;10.63;100.00;100417.06;4977569;28;20050;-70
2023/01/12 11:45:52;;;;;;;1.05;0.90;;;;;;;10.61;100.00;100419.00;4991269;28;20088;-70
2023/01/12 11:49:00;;;;;;;1.23;1.02;;;;;;;10.56;100.00;100408.66;4983649;28;20038;-71
2023/01/12 11:51:26;;;;;;;0.68;0.68;;;;;;;10.51;100.00;100421.44;4990166;28;20072;-70
2023/01/12 11:53:52;;;;;;;0.82;0.82;;;;;;;10.56;100.00;100415.81;4991463;28;20056;-70
2023/01/12 11:56:39;;;;;;;0.77;0.60;;;;;;;10.64;100.00;100418.75;4987411;28;20442;-70
2023/01/12 11:59:12;;;;;;;1.48;0.77;;;;;;;10.50;100.00;100422.41;4982791;28;20061;-71
2023/01/12 12:02:03;;;;;;;0.80;0.80;;;;;;;10.67;100.00;100405.22;4989868;28;20041;-71
2023/01/12 12:04:35;;;;;;;4.68;1.13;;;;;;;10.58;100.00;100405.88;4987747;28;20108;-71
2023/01/12 12:07:22;;;;;;;2.38;0.95;;;;;;;10.56;100.00;100406.00;4991339;28;20041;-70
2023/01/12 12:09:57;;;;;;;1.30;0.73;;;;;;;10.55;100.00;100416.78;4969241;28;20404;-70
2023/01/12 12:12:43;;;;;;;1.02;0.73;;;;;;;10.54;100.00;100405.25;4983121;28;20081;-70
2023/01/12 12:15:32;;;;;;;3.25;1.50;;;;;;;10.63;100.00;100404.59;4987368;28;20041;-70